Time;durP1;ratioP1;P1;durP2;ratioP2;P2;SDS_P1;SDS_P2;PMS_P1;PMS_P2;Temp;Humidity;BMP_temperature;BMP_pressure;BME280_temperature;BME280_humidity;BME280_pressure;Samples;Min_cycle;Max_cycle;Signal;HPM_P1;HPM_P2
2024/02/18 00:02:03;;;;;;;31.70;25.15;;;11.20;99.90;;;;;;4946098;29;20078;-55
2024/02/18 00:04:31;;;;;;;32.05;25.73;;;11.30;99.90;;;;;;4941088;28;20052;-52
2024/02/18 00:06:57;;;;;;;30.25;25.80;;;11.30;99.90;;;;;;4941592;29;20074;-56
2024/02/18 00:09:23;;;;;;;32.28;25.50;;;11.30;99.90;;;;;;4941840;29;20046;-57
2024/02/18 00:11:49;;;;;;;29.65;24.38;;;11.10;99.90;;;;;;4938992;29;20051;-56
2024/02/18 00:14:15;;;;;;;28.73;24.23;;;11.30;99.90;;;;;;4939435;29;20031;-54
2024/02/18 00:16:40;;;;;;;32.90;25.10;;;11.20;99.90;;;;;;4947466;29;20039;-54
2024/02/18 00:19:07;;;;;;;31.92;24.55;;;11.10;99.90;;;;;;4948240;29;20487;-54
2024/02/18 00:21:33;;;;;;;32.80;25.67;;;11.20;99.90;;;;;;4945274;29;20162;-58
2024/02/18 00:23:59;;;;;;;32.42;24.92;;;11.20;99.90;;;;;;4944964;29;20036;-53
2024/02/18 00:26:25;;;;;;;33.00;26.05;;;11.20;99.90;;;;;;4939160;29;20554;-53
2024/02/18 00:28:51;;;;;;;36.13;26.23;;;11.20;99.90;;;;;;4943745;29;20363;-55
2024/02/18 00:31:17;;;;;;;33.00;25.83;;;11.30;99.90;;;;;;4943595;29;20117;-53
2024/02/18 00:33:43;;;;;;;32.38;25.02;;;11.30;99.90;;;;;;4972803;28;20039;-54
2024/02/18 00:36:09;;;;;;;29.13;24.17;;;11.30;99.90;;;;;;4991850;28;20039;-57
2024/02/18 00:38:34;;;;;;;34.88;25.75;;;11.10;99.90;;;;;;4988030;28;20081;-55
2024/02/18 00:41:03;;;;;;;32.92;26.27;;;11.10;99.90;;;;;;4987398;28;20038;-54
2024/02/18 00:43:29;;;;;;;28.17;24.40;;;11.00;99.90;;;;;;4987494;28;20042;-53
2024/02/18 00:45:54;;;;;;;30.35;24.13;;;11.10;99.90;;;;;;4980617;28;20060;-56
2024/02/18 00:48:20;;;;;;;28.52;24.15;;;11.00;99.90;;;;;;4990855;28;20109;-56
2024/02/18 00:50:46;;;;;;;27.33;21.90;;;10.90;99.90;;;;;;4990543;28;20035;-54
2024/02/18 00:53:12;;;;;;;28.52;23.80;;;11.10;99.90;;;;;;4988533;28;20405;-50
2024/02/18 00:55:43;;;;;;;29.52;22.73;;;11.00;99.90;;;;;;4984433;28;20447;-54
2024/02/18 00:58:12;;;;;;;26.67;21.77;;;10.80;99.90;;;;;;4987047;28;20040;-52
2024/02/18 01:00:39;;;;;;;30.70;23.55;;;10.70;99.90;;;;;;4986716;28;20034;-53
2024/02/18 01:03:06;;;;;;;26.85;22.30;;;10.70;99.90;;;;;;4985659;28;20023;-57
2024/02/18 01:05:32;;;;;;;27.65;22.10;;;10.70;99.90;;;;;;4936898;28;20098;-53
2024/02/18 01:07:57;;;;;;;25.42;21.15;;;10.70;99.90;;;;;;4987902;28;20022;-56
2024/02/18 01:10:23;;;;;;;26.05;20.30;;;10.80;99.90;;;;;;4988215;28;20038;-55
2024/02/18 01:12:49;;;;;;;25.40;21.70;;;10.70;99.90;;;;;;4988653;28;20030;-57
2024/02/18 01:15:16;;;;;;;22.92;19.88;;;10.70;99.90;;;;;;4991107;28;20045;-53
2024/02/18 01:17:42;;;;;;;26.02;20.48;;;10.60;99.90;;;;;;4992859;28;20077;-55
2024/02/18 01:20:08;;;;;;;24.50;20.02;;;10.60;99.90;;;;;;4983251;28;20069;-56
2024/02/18 01:22:34;;;;;;;24.52;19.92;;;10.50;99.90;;;;;;4981585;28;20463;-57
2024/02/18 01:25:00;;;;;;;23.65;20.45;;;10.40;99.90;;;;;;4985602;28;20378;-53
2024/02/18 01:27:26;;;;;;;25.77;19.75;;;10.40;99.90;;;;;;4993763;28;20030;-54
2024/02/18 01:29:52;;;;;;;23.17;18.98;;;10.30;99.90;;;;;;4987701;28;20034;-57
2024/02/18 01:32:18;;;;;;;29.25;21.00;;;10.40;99.90;;;;;;4985129;28;20058;-55
2024/02/18 01:34:44;;;;;;;25.42;19.05;;;10.40;99.90;;;;;;4987258;28;20533;-53
2024/02/18 01:37:10;;;;;;;23.02;17.58;;;10.40;99.90;;;;;;4995387;28;20364;-54
2024/02/18 01:39:35;;;;;;;23.13;17.42;;;10.40;99.90;;;;;;4989307;28;20033;-54
2024/02/18 01:42:03;;;;;;;23.40;18.33;;;10.40;99.90;;;;;;4987658;28;20026;-55
2024/02/18 01:44:28;;;;;;;25.73;18.73;;;10.50;99.90;;;;;;4989952;28;20039;-54
2024/02/18 01:46:54;;;;;;;25.27;18.73;;;10.60;99.90;;;;;;4951956;28;20112;-53
2024/02/18 01:49:21;;;;;;;22.17;19.30;;;10.60;99.90;;;;;;4983290;28;20387;-52
2024/02/18 01:51:47;;;;;;;22.55;17.95;;;10.60;99.90;;;;;;4989362;28;20027;-50
2024/02/18 01:54:14;;;;;;;22.20;18.02;;;10.50;99.90;;;;;;4989218;28;20054;-52
2024/02/18 01:56:41;;;;;;;22.90;17.15;;;10.50;99.90;;;;;;4985875;28;20038;-56
2024/02/18 01:59:08;;;;;;;23.30;17.13;;;10.40;99.90;;;;;;4982400;28;20031;-55
2024/02/18 02:01:34;;;;;;;22.65;17.83;;;10.30;99.90;;;;;;4984841;28;20027;-56
2024/02/18 02:04:01;;;;;;;21.92;17.08;;;10.30;99.90;;;;;;4984880;28;20034;-57
2024/02/18 02:06:29;;;;;;;20.50;17.13;;;10.40;99.90;;;;;;4982990;28;20486;-50
2024/02/18 02:08:56;;;;;;;20.88;16.02;;;10.40;99.90;;;;;;4960579;28;20048;-59
2024/02/18 02:11:22;;;;;;;23.48;17.83;;;10.40;99.90;;;;;;4986454;28;20043;-56
2024/02/18 02:13:47;;;;;;;21.77;17.90;;;10.40;99.90;;;;;;4951935;28;20110;-52
2024/02/18 02:16:14;;;;;;;21.00;16.90;;;10.50;99.90;;;;;;4979791;28;20031;-56
2024/02/18 02:18:40;;;;;;;21.00;16.77;;;10.50;99.90;;;;;;4991952;28;20045;-55
2024/02/18 02:21:06;;;;;;;22.05;17.60;;;10.60;99.90;;;;;;4978903;28;20416;-53
2024/02/18 02:23:33;;;;;;;20.52;18.15;;;10.60;99.90;;;;;;4920476;29;20055;-54
2024/02/18 02:26:00;;;;;;;21.17;17.35;;;10.70;99.90;;;;;;4926603;29;20079;-57
2024/02/18 02:28:29;;;;;;;21.70;17.40;;;10.70;99.90;;;;;;4921735;29;20086;-56
2024/02/18 02:30:55;;;;;;;20.35;17.42;;;10.70;99.90;;;;;;4925000;29;20043;-54
2024/02/18 02:33:22;;;;;;;20.58;18.38;;;10.90;99.90;;;;;;4896999;29;20048;-57
2024/02/18 02:35:48;;;;;;;23.25;18.50;;;11.10;99.90;;;;;;4928072;29;20043;-55
2024/02/18 02:38:14;;;;;;;20.50;17.13;;;11.00;99.90;;;;;;4916991;29;20036;-56
2024/02/18 02:40:40;;;;;;;22.52;18.75;;;11.00;99.90;;;;;;4924725;29;20508;-56
2024/02/18 02:43:06;;;;;;;21.55;18.80;;;10.90;99.90;;;;;;4916449;29;20066;-56
2024/02/18 02:45:32;;;;;;;22.13;17.98;;;11.00;99.90;;;;;;4918335;29;20078;-57
2024/02/18 02:47:58;;;;;;;22.02;18.10;;;10.90;99.90;;;;;;4923424;29;20046;-58
2024/02/18 02:50:24;;;;;;;20.88;16.38;;;10.80;99.90;;;;;;4900602;29;20574;-53
2024/02/18 02:52:50;;;;;;;22.98;18.17;;;10.70;99.90;;;;;;4931553;29;20060;-56
2024/02/18 02:55:16;;;;;;;20.48;18.27;;;10.70;99.90;;;;;;4976539;28;20402;-57
2024/02/18 02:57:42;;;;;;;21.63;17.70;;;10.70;99.90;;;;;;4940581;28;20157;-56
2024/02/18 03:00:11;;;;;;;23.10;18.38;;;10.60;99.90;;;;;;4981282;28;20031;-56
2024/02/18 03:02:41;;;;;;;21.60;17.70;;;10.60;99.90;;;;;;4986346;28;20088;-54
2024/02/18 03:05:09;;;;;;;24.08;18.67;;;10.60;99.90;;;;;;4981512;28;20525;-54
2024/02/18 03:07:35;;;;;;;18.92;16.60;;;10.60;99.90;;;;;;4923749;28;20058;-57
2024/02/18 03:10:02;;;;;;;21.80;17.75;;;10.70;99.90;;;;;;4989898;28;20030;-56
2024/02/18 03:12:28;;;;;;;21.55;18.38;;;10.60;99.90;;;;;;4988634;28;20031;-53
2024/02/18 03:14:54;;;;;;;19.05;16.17;;;10.50;99.90;;;;;;4986231;28;20173;-56
2024/02/18 03:17:20;;;;;;;19.60;17.15;;;10.50;99.90;;;;;;4987050;28;20026;-57
2024/02/18 03:19:45;;;;;;;20.00;16.90;;;10.40;99.90;;;;;;4984808;28;20375;-53
2024/02/18 03:22:11;;;;;;;19.42;17.08;;;10.20;99.90;;;;;;4931989;28;20043;-60
2024/02/18 03:24:40;;;;;;;20.70;16.50;;;10.20;99.90;;;;;;4949487;28;20054;-53
2024/02/18 03:27:06;;;;;;;18.98;16.50;;;10.20;99.90;;;;;;4981636;28;20040;-54
2024/02/18 03:29:32;;;;;;;20.63;17.42;;;10.20;99.90;;;;;;4985806;28;20481;-56
2024/02/18 03:31:58;;;;;;;21.33;17.30;;;10.20;99.90;;;;;;4978869;28;20426;-54
2024/02/18 03:34:24;;;;;;;19.40;16.65;;;10.20;99.90;;;;;;4980351;28;20076;-55
2024/02/18 03:36:50;;;;;;;20.27;18.05;;;10.20;99.90;;;;;;4984539;28;20089;-56
2024/02/18 03:39:16;;;;;;;18.70;16.17;;;10.20;99.90;;;;;;4992460;28;20037;-59
2024/02/18 03:41:41;;;;;;;20.98;16.10;;;10.30;99.90;;;;;;4985957;28;20034;-57
2024/02/18 03:44:07;;;;;;;20.77;17.52;;;10.30;99.90;;;;;;4935928;28;20050;-56
2024/02/18 03:46:33;;;;;;;20.30;16.58;;;10.20;99.90;;;;;;4985982;28;20427;-57
2024/02/18 03:48:59;;;;;;;20.20;15.60;;;10.20;99.90;;;;;;4933240;28;20042;-52
2024/02/18 03:51:24;;;;;;;17.88;15.98;;;10.30;99.90;;;;;;4985349;28;20554;-57
2024/02/18 03:53:50;;;;;;;18.55;15.93;;;10.10;99.90;;;;;;4980467;28;20150;-57
2024/02/18 03:56:16;;;;;;;19.55;16.13;;;10.20;99.90;;;;;;4985176;28;20501;-54
2024/02/18 03:58:41;;;;;;;18.25;16.00;;;10.20;99.90;;;;;;4987362;28;20141;-50
2024/02/18 04:01:07;;;;;;;20.40;17.80;;;10.20;99.90;;;;;;4983931;28;20034;-53
2024/02/18 04:03:33;;;;;;;20.33;16.63;;;10.20;99.90;;;;;;4986505;28;20030;-53
2024/02/18 04:05:58;;;;;;;20.08;16.02;;;10.10;99.90;;;;;;4987923;28;20038;-52
2024/02/18 04:08:24;;;;;;;19.55;15.75;;;10.20;99.90;;;;;;4983150;28;20049;-57
2024/02/18 04:10:50;;;;;;;19.75;16.40;;;10.20;99.90;;;;;;4950765;28;20034;-56
2024/02/18 04:13:15;;;;;;;17.90;15.20;;;10.20;99.90;;;;;;4981380;28;20113;-55
2024/02/18 04:15:41;;;;;;;21.80;15.98;;;10.20;99.90;;;;;;4965813;28;20534;-57
2024/02/18 04:18:07;;;;;;;19.63;17.27;;;10.20;99.90;;;;;;4937264;28;20122;-56
2024/02/18 04:20:33;;;;;;;19.25;15.88;;;10.20;99.90;;;;;;4982513;28;20069;-53
2024/02/18 04:22:59;;;;;;;20.20;16.63;;;10.20;99.90;;;;;;4982738;28;20026;-54
2024/02/18 04:25:26;;;;;;;20.13;16.88;;;10.10;99.90;;;;;;4991533;28;20053;-56
2024/02/18 04:27:52;;;;;;;19.88;17.15;;;10.10;99.90;;;;;;4987257;28;20145;-52
2024/02/18 04:30:18;;;;;;;18.65;16.65;;;10.10;99.90;;;;;;4984912;28;20121;-57
2024/02/18 04:32:43;;;;;;;19.67;16.63;;;10.00;99.90;;;;;;4988318;28;20085;-57
2024/02/18 04:35:09;;;;;;;22.38;17.65;;;10.00;99.90;;;;;;4986366;28;20117;-52
2024/02/18 04:37:35;;;;;;;20.92;17.88;;;9.90;99.90;;;;;;4926413;28;20043;-52
2024/02/18 04:40:01;;;;;;;21.77;16.83;;;9.90;99.90;;;;;;4985245;28;20034;-56
2024/02/18 04:42:27;;;;;;;19.25;16.33;;;9.90;99.90;;;;;;4991756;28;20034;-55
2024/02/18 04:44:52;;;;;;;22.35;17.42;;;9.90;99.90;;;;;;4990124;28;20027;-56
2024/02/18 04:47:18;;;;;;;23.58;17.35;;;9.90;99.90;;;;;;4948896;28;20503;-56
2024/02/18 04:49:44;;;;;;;21.85;18.63;;;9.80;99.90;;;;;;4987506;28;20023;-56
2024/02/18 04:52:10;;;;;;;20.55;16.85;;;9.80;99.90;;;;;;4981514;28;20050;-55
2024/02/18 04:54:36;;;;;;;20.55;17.25;;;9.70;99.90;;;;;;4980915;28;20058;-52
2024/02/18 04:57:02;;;;;;;21.77;17.25;;;9.60;99.90;;;;;;4986754;28;20036;-51
2024/02/18 04:59:28;;;;;;;20.95;17.48;;;9.60;99.90;;;;;;4951473;28;20376;-56
2024/02/18 05:01:53;;;;;;;21.85;17.67;;;9.60;99.90;;;;;;4931441;28;20050;-53
2024/02/18 05:04:29;;;;;;;22.70;17.50;;;;;;;;;;4982255;28;20465;-59
2024/02/18 05:06:55;;;;;;;22.15;17.35;;;9.40;99.90;;;;;;4986599;28;20121;-56
2024/02/18 05:09:21;;;;;;;21.58;18.10;;;9.30;99.90;;;;;;4964616;28;20129;-56
2024/02/18 05:11:46;;;;;;;21.90;17.95;;;9.50;99.90;;;;;;4981355;28;20031;-52
2024/02/18 05:14:12;;;;;;;22.45;17.55;;;9.50;99.90;;;;;;4984849;28;20045;-55
2024/02/18 05:16:37;;;;;;;21.52;16.90;;;9.50;99.90;;;;;;4981775;28;20030;-53
2024/02/18 05:19:03;;;;;;;21.67;17.35;;;9.50;99.90;;;;;;4973550;28;20030;-59
2024/02/18 05:21:29;;;;;;;21.65;18.40;;;9.40;99.90;;;;;;4987033;28;20432;-55
2024/02/18 05:23:56;;;;;;;21.73;18.02;;;9.50;99.90;;;;;;4990750;28;20023;-53
2024/02/18 05:26:25;;;;;;;19.42;17.30;;;9.60;99.90;;;;;;4983665;28;20384;-54
2024/02/18 05:28:51;;;;;;;25.38;17.58;;;9.40;99.90;;;;;;4990161;28;20066;-50
2024/02/18 05:31:22;;;;;;;20.25;17.42;;;9.30;99.90;;;;;;4988143;28;20490;-55
2024/02/18 05:33:49;;;;;;;20.55;17.23;;;9.30;99.90;;;;;;4989592;28;20042;-54
2024/02/18 05:36:15;;;;;;;21.08;17.95;;;9.50;99.90;;;;;;4987709;28;20037;-54
2024/02/18 05:38:41;;;;;;;19.73;16.83;;;9.40;99.90;;;;;;4984508;28;20387;-57
2024/02/18 05:41:07;;;;;;;21.48;17.02;;;9.40;99.90;;;;;;4935323;28;20042;-55
2024/02/18 05:43:32;;;;;;;20.35;17.58;;;9.40;99.90;;;;;;4986225;28;20034;-53
2024/02/18 05:45:58;;;;;;;21.15;18.13;;;9.40;99.90;;;;;;4993658;28;20391;-53
2024/02/18 05:48:24;;;;;;;22.08;17.17;;;9.40;99.90;;;;;;4986934;28;20539;-52
2024/02/18 05:50:50;;;;;;;20.05;17.50;;;9.30;99.90;;;;;;4943156;28;20069;-54
2024/02/18 05:53:16;;;;;;;21.40;16.63;;;9.40;99.90;;;;;;4988394;28;20037;-53
2024/02/18 05:55:41;;;;;;;20.25;17.35;;;9.40;99.90;;;;;;4985522;28;20050;-53
2024/02/18 05:58:07;;;;;;;20.33;16.98;;;9.40;99.90;;;;;;4986255;28;20038;-54
2024/02/18 06:00:33;;;;;;;25.95;20.98;;;9.60;99.90;;;;;;4984264;28;20030;-55
2024/02/18 06:02:59;;;;;;;23.27;19.15;;;9.50;99.90;;;;;;4990497;28;20042;-55
2024/02/18 06:05:25;;;;;;;21.48;18.17;;;9.50;99.90;;;;;;4990771;28;20034;-51
2024/02/18 06:07:50;;;;;;;19.45;17.35;;;9.60;99.90;;;;;;4980640;28;20050;-55
2024/02/18 06:10:16;;;;;;;18.77;15.63;;;9.80;99.90;;;;;;4906181;28;20052;-55
2024/02/18 06:12:42;;;;;;;20.55;16.67;;;9.70;99.90;;;;;;4989868;28;20031;-56
2024/02/18 06:15:09;;;;;;;19.13;15.43;;;10.40;99.90;;;;;;4951292;28;20039;-54
2024/02/18 06:17:35;;;;;;;17.17;15.38;;;12.10;99.90;;;;;;4934705;28;20141;-53
2024/02/18 06:20:02;;;;;;;18.17;15.35;;;13.40;99.90;;;;;;4947156;28;20043;-52
2024/02/18 06:22:28;;;;;;;15.75;13.23;;;14.70;99.90;;;;;;4986590;28;20039;-54
2024/02/18 06:24:55;;;;;;;17.95;13.88;;;;;;;;;;4989016;28;20466;-55
2024/02/18 06:27:21;;;;;;;15.35;13.75;;;;;;;;;;4983554;28;20143;-54
2024/02/18 06:29:47;;;;;;;15.25;13.52;;;18.20;99.90;;;;;;4988089;28;20045;-52
2024/02/18 06:32:13;;;;;;;14.18;12.15;;;;;;;;;;4987242;28;20034;-59
2024/02/18 06:34:39;;;;;;;15.63;12.43;;;;;;;;;;4980468;28;20526;-53
2024/02/18 06:37:05;;;;;;;14.05;12.55;;;;;;;;;;4983948;28;20458;-55
2024/02/18 06:39:31;;;;;;;37.22;24.15;;;;;;;;;;4983971;28;20391;-57
2024/02/18 06:41:58;;;;;;;15.70;13.93;;;;;;;;;;4981625;28;20045;-54
2024/02/18 06:44:24;;;;;;;14.27;12.27;;;;;;;;;;4983334;28;20058;-52
2024/02/18 06:46:51;;;;;;;14.93;13.18;;;;;;;;;;4986931;28;20058;-50
2024/02/18 06:49:17;;;;;;;15.52;13.20;;;21.30;89.00;;;;;;4983433;28;20039;-56
2024/02/18 06:51:43;;;;;;;13.65;11.93;;;21.30;89.50;;;;;;4981758;28;20431;-56
2024/02/18 06:54:08;;;;;;;12.68;11.15;;;22.00;87.60;;;;;;4982595;28;20046;-55
2024/02/18 06:56:35;;;;;;;13.43;12.02;;;22.20;87.30;;;;;;4980788;28;20031;-58
2024/02/18 06:59:00;;;;;;;17.60;14.85;;;22.70;86.50;;;;;;4984714;28;20038;-55
2024/02/18 07:01:26;;;;;;;18.65;15.55;;;23.50;85.10;;;;;;4989893;28;20086;-54
2024/02/18 07:03:53;;;;;;;14.30;12.02;;;;;;;;;;4946158;29;20179;-56
2024/02/18 07:06:18;;;;;;;11.65;10.45;;;24.30;81.80;;;;;;4941245;29;20052;-54
2024/02/18 07:08:44;;;;;;;12.52;11.13;;;24.50;81.80;;;;;;4940149;29;20044;-53
2024/02/18 07:11:11;;;;;;;12.95;11.75;;;23.70;82.50;;;;;;4941318;28;20500;-56
2024/02/18 07:13:36;;;;;;;13.30;11.85;;;24.10;82.50;;;;;;4899657;29;20039;-57
2024/02/18 07:16:03;;;;;;;13.80;12.30;;;24.30;95.10;;;;;;4900437;29;20570;-53
2024/02/18 07:18:29;;;;;;;11.23;10.07;;;22.70;83.30;;;;;;4943044;29;20507;-49
2024/02/18 07:20:55;;;;;;;12.32;11.05;;;;;;;;;;4939386;28;20116;-53
2024/02/18 07:23:22;;;;;;;12.80;11.02;;;;;;;;;;4934421;29;20055;-55
2024/02/18 07:25:48;;;;;;;17.40;13.40;;;;;;;;;;4945693;29;20118;-53
2024/02/18 07:28:15;;;;;;;14.95;11.60;;;25.10;79.90;;;;;;4938926;29;20036;-56
2024/02/18 07:30:41;;;;;;;18.42;13.43;;;25.20;79.30;;;;;;4919783;28;20043;-52
2024/02/18 07:33:07;;;;;;;12.23;10.90;;;24.80;78.50;;;;;;4918747;29;20203;-55
2024/02/18 07:35:33;;;;;;;19.45;13.70;;;24.30;79.60;;;;;;4979118;28;20122;-55
2024/02/18 07:37:59;;;;;;;13.57;11.60;;;24.20;80.40;;;;;;4981702;28;20164;-53
2024/02/18 07:40:25;;;;;;;11.60;10.40;;;23.70;80.10;;;;;;4987966;28;20042;-55
2024/02/18 07:42:50;;;;;;;12.35;11.13;;;23.70;80.30;;;;;;4933492;28;20039;-58
2024/02/18 07:45:17;;;;;;;25.98;19.17;;;24.20;80.60;;;;;;4984752;28;20048;-55
2024/02/18 07:47:43;;;;;;;13.65;11.13;;;22.60;81.10;;;;;;4987716;28;20038;-59
2024/02/18 07:50:10;;;;;;;30.58;20.95;;;22.70;82.30;;;;;;4975976;28;20046;-55
2024/02/18 07:52:35;;;;;;;13.30;10.10;;;22.90;82.20;;;;;;4982960;28;20030;-50
2024/02/18 07:55:02;;;;;;;13.95;12.13;;;23.20;81.60;;;;;;4984801;28;20398;-52
2024/02/18 07:57:28;;;;;;;18.77;13.95;;;22.90;82.10;;;;;;4985571;28;20039;-53
2024/02/18 07:59:54;;;;;;;14.30;12.55;;;23.10;82.30;;;;;;4989009;28;20096;-53
2024/02/18 08:02:21;;;;;;;13.23;12.00;;;22.70;82.00;;;;;;4986525;28;20506;-56
2024/02/18 08:04:47;;;;;;;13.52;11.30;;;22.90;82.30;;;;;;4950338;28;20047;-53
2024/02/18 08:07:12;;;;;;;12.88;11.68;;;23.80;81.10;;;;;;4983741;28;20040;-55
2024/02/18 08:09:38;;;;;;;23.20;14.40;;;23.20;80.90;;;;;;4986158;28;21031;-55
2024/02/18 08:12:04;;;;;;;19.15;14.60;;;22.70;80.20;;;;;;4989794;28;20030;-53
2024/02/18 08:14:30;;;;;;;16.73;14.05;;;;;;;;;;4946212;28;20050;-53
2024/02/18 08:16:56;;;;;;;21.92;16.13;;;23.70;84.00;;;;;;4987775;28;20026;-55
2024/02/18 08:19:22;;;;;;;12.82;11.18;;;24.00;81.40;;;;;;4942178;28;20038;-55
2024/02/18 08:21:48;;;;;;;15.13;11.80;;;23.50;81.70;;;;;;4948680;28;20035;-52
2024/02/18 08:24:14;;;;;;;42.53;21.85;;;23.10;80.00;;;;;;4980853;28;20023;-57
2024/02/18 08:26:40;;;;;;;28.67;18.00;;;;;;;;;;4984004;28;20543;-51
2024/02/18 08:29:07;;;;;;;64.47;34.50;;;22.30;80.90;;;;;;4987911;28;20023;-54
2024/02/18 08:31:33;;;;;;;11.68;10.48;;;22.30;82.40;;;;;;4983316;28;20022;-53
2024/02/18 08:34:01;;;;;;;42.38;23.80;;;20.20;83.50;;;;;;4985013;28;20038;-54
2024/02/18 08:36:27;;;;;;;33.40;18.77;;;20.90;85.10;;;;;;4988193;28;20116;-54
2024/02/18 08:38:54;;;;;;;38.38;23.00;;;;;;;;;;4990230;28;20473;-52
2024/02/18 08:41:20;;;;;;;13.70;12.43;;;;;;;;;;4970062;28;20498;-54
2024/02/18 08:43:52;;;;;;;20.10;13.70;;;;;;;;;;4988275;28;20344;-54
2024/02/18 08:46:18;;;;;;;12.48;11.02;;;;;;;;;;4981784;28;20050;-53
2024/02/18 08:48:45;;;;;;;12.80;11.50;;;;;;;;;;4984046;28;20045;-51
2024/02/18 08:51:10;;;;;;;18.80;12.70;;;20.40;99.90;;;;;;4988007;28;20514;-54
2024/02/18 08:53:38;;;;;;;34.58;19.65;;;;;;;;;;4989076;28;20054;-55
2024/02/18 08:56:07;;;;;;;19.25;11.57;;;19.20;88.10;;;;;;4980527;28;20034;-54
2024/02/18 08:58:35;;;;;;;12.07;10.80;;;19.30;88.00;;;;;;4952030;28;20045;-55
2024/02/18 09:01:00;;;;;;;17.40;12.30;;;19.20;88.20;;;;;;4984304;28;20029;-53
2024/02/18 09:03:27;;;;;;;15.45;13.05;;;18.20;92.10;;;;;;4983922;28;20105;-53
2024/02/18 09:05:53;;;;;;;15.20;12.75;;;;;;;;;;4993207;28;20097;-52
2024/02/18 09:08:20;;;;;;;45.63;22.75;;;17.60;90.80;;;;;;4989447;28;20045;-55
2024/02/18 09:10:46;;;;;;;28.85;16.02;;;18.10;91.30;;;;;;4989362;28;20085;-56
2024/02/18 09:13:12;;;;;;;13.70;12.27;;;18.40;90.70;;;;;;4981647;28;20034;-52
2024/02/18 09:15:38;;;;;;;62.80;36.90;;;18.80;90.70;;;;;;4953623;28;20038;-49
2024/02/18 09:18:04;;;;;;;35.25;21.67;;;19.90;90.20;;;;;;4985105;28;20118;-52
2024/02/18 09:20:29;;;;;;;13.45;12.18;;;19.90;89.10;;;;;;4957357;28;20038;-50
2024/02/18 09:22:56;;;;;;;12.02;10.48;;;20.70;86.90;;;;;;4989036;28;20494;-55
2024/02/18 09:25:22;;;;;;;36.25;22.33;;;19.80;86.20;;;;;;4984760;28;20387;-49
2024/02/18 09:27:48;;;;;;;18.73;13.88;;;20.20;86.90;;;;;;4988544;28;20033;-53
2024/02/18 09:30:14;;;;;;;13.10;10.90;;;20.70;87.30;;;;;;4980659;28;20031;-48
2024/02/18 09:32:41;;;;;;;12.93;8.95;;;21.40;85.70;;;;;;4937954;28;20037;-48
2024/02/18 09:35:07;;;;;;;11.85;10.07;;;20.70;84.40;;;;;;4977443;28;20100;-52
2024/02/18 09:37:33;;;;;;;12.80;11.18;;;19.70;85.70;;;;;;4985956;28;20022;-54
2024/02/18 09:39:59;;;;;;;24.63;14.27;;;;;;;;;;4940597;28;20229;-49
2024/02/18 09:42:27;;;;;;;13.15;11.25;;;;;;;;;;4985762;28;20104;-52
2024/02/18 09:44:54;;;;;;;13.70;10.75;;;17.30;90.20;;;;;;4989710;28;20030;-53
2024/02/18 09:47:23;;;;;;;22.48;15.00;;;17.30;90.40;;;;;;4989470;28;20039;-52
2024/02/18 09:49:49;;;;;;;24.60;15.95;;;16.30;91.30;;;;;;4983507;28;20019;-53
2024/02/18 09:52:16;;;;;;;12.23;10.57;;;15.90;92.10;;;;;;4983230;28;20046;-60
2024/02/18 09:54:42;;;;;;;16.92;12.45;;;15.80;92.70;;;;;;4934909;28;20064;-56
2024/02/18 09:57:08;;;;;;;21.70;16.17;;;15.40;93.30;;;;;;4983801;28;20034;-57
2024/02/18 09:59:34;;;;;;;16.92;12.70;;;14.90;93.90;;;;;;4988213;28;20034;-53
2024/02/18 10:02:05;;;;;;;19.05;14.55;;;15.20;94.60;;;;;;4980144;28;20034;-52
2024/02/18 10:04:31;;;;;;;21.00;14.88;;;15.40;94.70;;;;;;4984834;28;20023;-56
2024/02/18 10:06:57;;;;;;;43.67;24.88;;;15.20;95.40;;;;;;4986485;28;20101;-52
2024/02/18 10:09:23;;;;;;;35.20;22.25;;;15.50;94.60;;;;;;4984715;28;20490;-48
2024/02/18 10:11:50;;;;;;;29.65;19.98;;;16.60;93.90;;;;;;4983396;28;20073;-49
2024/02/18 10:14:23;;;;;;;33.13;23.40;;;17.50;92.50;;;;;;4983162;28;20085;-52
2024/02/18 10:16:49;;;;;;;21.48;17.70;;;18.60;92.00;;;;;;4983053;28;20039;-50
2024/02/18 10:19:15;;;;;;;20.63;16.08;;;18.70;90.80;;;;;;4948884;28;20054;-52
2024/02/18 10:21:41;;;;;;;12.27;9.07;;;19.90;90.30;;;;;;4937646;28;20038;-55
2024/02/18 10:24:09;;;;;;;14.15;11.77;;;18.00;89.90;;;;;;4982982;28;20058;-49
2024/02/18 10:26:35;;;;;;;17.65;13.52;;;17.20;90.80;;;;;;4983432;28;20042;-51
2024/02/18 10:29:01;;;;;;;10.50;9.40;;;17.40;91.70;;;;;;4952151;28;20045;-51
2024/02/18 10:31:28;;;;;;;21.25;11.90;;;17.40;91.40;;;;;;4983290;28;20066;-48
2024/02/18 10:33:53;;;;;;;23.70;16.70;;;16.70;91.60;;;;;;4984608;28;20061;-48
2024/02/18 10:36:24;;;;;;;19.83;14.00;;;16.20;92.90;;;;;;4936740;28;20046;-51
2024/02/18 10:38:53;;;;;;;19.87;15.27;;;15.80;93.70;;;;;;4986471;28;20072;-51
2024/02/18 10:41:22;;;;;;;12.38;10.15;;;16.40;93.70;;;;;;4983760;28;20034;-51
2024/02/18 10:43:56;;;;;;;12.65;11.35;;;16.50;93.00;;;;;;4992926;28;20380;-53
2024/02/18 10:46:24;;;;;;;13.75;11.20;;;16.20;93.00;;;;;;4983505;28;20055;-49
2024/02/18 10:48:56;;;;;;;17.67;13.07;;;16.10;93.00;;;;;;4956748;28;20034;-50
2024/02/18 10:51:28;;;;;;;;;;;16.10;93.00;;;;;;4983114;28;20118;-49
2024/02/18 10:54:27;;;;;;;12.90;10.45;;;15.90;93.40;;;;;;4991559;28;19922;-50
2024/02/18 10:56:55;;;;;;;17.45;13.52;;;15.50;94.10;;;;;;4968264;28;20038;-52
2024/02/18 10:59:27;;;;;;;14.20;11.35;;;15.60;94.40;;;;;;4981473;28;20446;-49
2024/02/18 11:02:22;;;;;;;11.98;9.73;;;15.70;94.40;;;;;;4986448;28;20030;-50
2024/02/18 11:04:49;;;;;;;22.10;16.90;;;15.40;94.10;;;;;;4913481;28;20054;-52
2024/02/18 11:07:16;;;;;;;34.22;19.63;;;15.10;94.70;;;;;;4981778;28;20066;-55
2024/02/18 11:09:42;;;;;;;22.52;16.40;;;15.00;95.10;;;;;;4954883;28;20034;-49
2024/02/18 11:12:09;;;;;;;19.17;14.43;;;14.60;95.70;;;;;;4968501;28;20050;-51
2024/02/18 11:14:37;;;;;;;12.82;11.05;;;14.80;96.20;;;;;;4952219;28;20034;-49
2024/02/18 11:17:03;;;;;;;15.05;12.35;;;15.40;96.30;;;;;;4990244;28;20382;-50
2024/02/18 11:19:32;;;;;;;19.13;12.50;;;15.70;94.90;;;;;;4934295;28;20045;-53
2024/02/18 11:21:59;;;;;;;17.90;13.95;;;16.00;94.40;;;;;;4985422;28;20517;-48
2024/02/18 11:24:25;;;;;;;17.02;11.75;;;16.50;94.50;;;;;;4983981;28;20109;-50
2024/02/18 11:26:51;;;;;;;12.93;11.63;;;16.80;93.60;;;;;;4920911;29;20131;-52
2024/02/18 11:29:17;;;;;;;15.05;12.48;;;16.70;93.40;;;;;;4921033;29;20072;-53
2024/02/18 11:31:43;;;;;;;12.32;10.25;;;17.80;92.60;;;;;;4907415;29;20036;-52
2024/02/18 11:34:09;;;;;;;12.75;11.18;;;18.80;91.70;;;;;;4928027;29;20111;-50
2024/02/18 11:36:35;;;;;;;10.35;8.45;;;18.80;91.10;;;;;;4926414;29;20135;-50
2024/02/18 11:39:01;;;;;;;15.75;12.63;;;18.40;99.70;;;;;;4890571;29;20500;-54
2024/02/18 11:41:30;;;;;;;13.63;10.70;;;17.50;91.60;;;;;;4925792;29;20374;-51
2024/02/18 11:44:05;;;;;;;9.38;7.85;;;17.80;91.20;;;;;;4924871;29;20032;-50
2024/02/18 11:46:31;;;;;;;11.50;10.30;;;16.60;90.80;;;;;;4922006;29;20433;-50
2024/02/18 11:48:57;;;;;;;13.45;10.48;;;16.30;91.70;;;;;;4927040;29;20039;-52
2024/02/18 11:51:28;;;;;;;14.02;9.95;;;16.30;92.00;;;;;;4923468;29;20032;-51
2024/02/18 11:53:55;;;;;;;14.75;11.05;;;15.80;91.70;;;;;;4910550;29;20059;-55
2024/02/18 11:56:20;;;;;;;13.80;11.27;;;15.50;92.20;;;;;;4897251;29;20477;-51
2024/02/18 11:58:47;;;;;;;15.15;11.77;;;15.50;92.40;;;;;;4936906;29;20054;-52
2024/02/18 12:01:15;;;;;;;12.55;9.30;;;15.40;92.30;;;;;;4943148;29;20028;-52
2024/02/18 12:03:45;;;;;;;14.55;9.73;;;15.20;92.50;;;;;;4945024;29;20481;-48
2024/02/18 12:06:10;;;;;;;11.65;9.52;;;15.30;92.40;;;;;;4943355;29;20043;-50
2024/02/18 12:08:37;;;;;;;12.50;10.68;;;15.40;92.80;;;;;;4946148;28;20074;-50
2024/02/18 12:11:06;;;;;;;10.20;7.20;;;15.60;92.70;;;;;;4929522;29;20039;-50
2024/02/18 12:13:33;;;;;;;7.90;6.03;;;15.60;91.40;;;;;;4937169;29;20519;-51
2024/02/18 12:16:02;;;;;;;13.10;9.23;;;15.50;90.80;;;;;;4945678;29;20195;-50
2024/02/18 12:18:28;;;;;;;15.65;12.00;;;15.70;91.20;;;;;;4943968;29;20034;-50
2024/02/18 12:20:55;;;;;;;10.25;8.60;;;15.70;91.30;;;;;;4948501;29;20023;-51
2024/02/18 12:23:22;;;;;;;25.55;16.75;;;15.80;91.30;;;;;;4948441;29;20031;-49
2024/02/18 12:25:51;;;;;;;7.90;6.68;;;15.40;89.80;;;;;;4962406;28;20047;-49
2024/02/18 12:28:18;;;;;;;4.90;4.15;;;15.40;88.60;;;;;;4967441;28;20027;-52
2024/02/18 12:30:47;;;;;;;5.65;4.22;;;15.20;86.90;;;;;;4946911;28;20086;-51
2024/02/18 12:33:14;;;;;;;4.20;3.47;;;15.10;87.40;;;;;;4962737;28;20028;-53
2024/02/18 12:35:40;;;;;;;8.48;5.90;;;14.80;88.30;;;;;;4962531;28;20794;-50